createdAt,value
2018-03-27T00:00:54.862Z,3.88
2018-03-27T00:01:54.775Z,3.91
2018-03-27T00:02:54.701Z,3.88
2018-03-27T00:03:54.627Z,3.87
2018-03-27T00:04:54.537Z,3.98
2018-03-27T00:05:54.450Z,4.04
2018-03-27T00:06:54.364Z,4.11
2018-03-27T00:07:54.288Z,3.97
2018-03-27T00:08:54.211Z,3.97
2018-03-27T00:09:54.125Z,4.04
2018-03-27T00:10:54.039Z,4.04
2018-03-27T00:11:53.963Z,4.05
2018-03-27T00:12:53.877Z,4.06
2018-03-27T00:13:53.788Z,3.98
2018-03-27T00:14:53.714Z,4.12
2018-03-27T00:15:53.630Z,3.96
2018-03-27T00:16:53.550Z,4.09
2018-03-27T00:17:53.464Z,4.15
2018-03-27T00:18:53.377Z,4.02
2018-03-27T00:19:53.313Z,4.12
2018-03-27T00:20:53.215Z,4.08
2018-03-27T00:21:53.140Z,4.12
2018-03-27T00:22:53.051Z,4.12
2018-03-27T00:23:52.976Z,4.09
2018-03-27T00:24:52.889Z,4.24
2018-03-27T00:25:52.814Z,4.22
2018-03-27T00:26:52.727Z,4.18
2018-03-27T00:27:52.640Z,4.12
2018-03-27T00:28:52.566Z,4.12
2018-03-27T00:29:52.477Z,4.12
2018-03-27T00:30:52.403Z,4.09
2018-03-27T00:31:52.316Z,4.12
2018-03-27T00:32:52.227Z,4.24
2018-03-27T00:33:52.171Z,4.11
2018-03-27T00:34:52.065Z,4.18
2018-03-27T00:35:51.980Z,4.14
2018-03-27T00:36:51.906Z,4.20
2018-03-27T00:37:51.816Z,4.20
2018-03-27T00:38:51.745Z,4.16
2018-03-27T00:39:51.667Z,4.11
2018-03-27T00:40:51.579Z,4.09
2018-03-27T00:41:51.494Z,4.11
2018-03-27T00:42:51.404Z,4.02
2018-03-27T00:43:51.329Z,3.96
2018-03-27T00:44:51.242Z,3.97
2018-03-27T00:45:51.167Z,3.97
2018-03-27T00:46:51.079Z,4.02
2018-03-27T00:47:50.993Z,3.96
2018-03-27T00:48:50.918Z,3.94
2018-03-27T00:49:50.828Z,4.00
2018-03-27T00:50:50.755Z,4.00
2018-03-27T00:51:50.667Z,3.97
2018-03-27T00:52:50.593Z,3.97
2018-03-27T00:53:50.505Z,3.97
2018-03-27T00:54:50.418Z,3.88
2018-03-27T00:55:50.344Z,3.91
2018-03-27T00:56:50.256Z,4.04
2018-03-27T00:57:50.180Z,3.98
2018-03-27T00:58:50.094Z,3.97
2018-03-27T00:59:50.005Z,4.00
2018-03-27T01:00:49.930Z,4.02
2018-03-27T01:01:49.855Z,3.97
2018-03-27T01:02:49.770Z,4.00
2018-03-27T01:03:49.694Z,3.97
2018-03-27T01:04:49.595Z,4.06
2018-03-27T01:05:49.519Z,3.96
2018-03-27T01:06:49.431Z,3.97
2018-03-27T01:07:49.357Z,3.88
2018-03-27T01:08:49.270Z,4.00
2018-03-27T01:09:49.182Z,3.98
2018-03-27T01:10:49.106Z,3.97
2018-03-27T01:11:49.021Z,4.04
2018-03-27T01:12:48.945Z,4.05
2018-03-27T01:13:48.857Z,4.05
2018-03-27T01:14:48.777Z,3.97
2018-03-27T01:15:48.695Z,3.98
2018-03-27T01:16:48.608Z,3.97
2018-03-27T01:17:48.534Z,4.04
2018-03-27T01:18:48.446Z,3.91
2018-03-27T01:19:48.365Z,3.98
2018-03-27T01:20:48.282Z,3.98
2018-03-27T01:21:48.196Z,3.96
2018-03-27T01:22:48.121Z,3.90
2018-03-27T01:23:48.033Z,3.97
2018-03-27T01:24:47.947Z,3.97
2018-03-27T01:25:47.871Z,4.00
2018-03-27T01:26:47.783Z,4.06
2018-03-27T01:27:47.709Z,4.00
2018-03-27T01:28:47.623Z,4.04
2018-03-27T01:29:47.537Z,3.94
2018-03-27T01:30:47.471Z,3.90
2018-03-27T01:31:47.372Z,4.00
2018-03-27T01:32:47.298Z,3.91
2018-03-27T01:33:47.209Z,4.00
2018-03-27T01:34:47.135Z,3.97
2018-03-27T01:35:47.048Z,3.90
2018-03-27T01:36:46.960Z,3.98
2018-03-27T01:37:46.884Z,3.91
2018-03-27T01:38:46.798Z,3.91
2018-03-27T01:39:46.723Z,3.97
2018-03-27T01:40:46.635Z,3.97
2018-03-27T01:41:46.549Z,3.84
2018-03-27T01:42:46.473Z,3.87
2018-03-27T01:43:46.385Z,3.73
2018-03-27T01:44:46.324Z,3.76
2018-03-27T01:45:46.223Z,3.69
2018-03-27T01:46:46.138Z,3.78
2018-03-27T01:47:46.061Z,3.68
2018-03-27T01:48:45.973Z,3.79
2018-03-27T01:49:45.887Z,3.80
2018-03-27T01:50:45.824Z,3.76
2018-03-27T01:51:45.725Z,3.79
2018-03-27T01:52:45.650Z,3.69
2018-03-27T01:53:45.561Z,3.69
2018-03-27T01:54:45.477Z,3.68
2018-03-27T01:55:45.400Z,3.69
2018-03-27T01:56:45.312Z,3.62
2018-03-27T01:57:45.237Z,3.76
2018-03-27T01:58:45.151Z,3.73
2018-03-27T01:59:45.063Z,3.73
2018-03-27T02:00:44.988Z,3.72
2018-03-27T02:01:44.904Z,3.69
2018-03-27T02:02:44.826Z,3.76
2018-03-27T02:03:44.751Z,3.78
2018-03-27T02:04:44.651Z,3.78
2018-03-27T02:05:44.576Z,3.72
2018-03-27T02:06:44.488Z,3.78
2018-03-27T02:07:44.413Z,3.83
2018-03-27T02:08:44.326Z,3.80
2018-03-27T02:09:44.238Z,3.80
2018-03-27T02:10:44.163Z,3.72
2018-03-27T02:11:44.077Z,3.80
2018-03-27T02:12:44.004Z,3.72
2018-03-27T02:13:43.914Z,3.76
2018-03-27T02:14:43.832Z,3.76
2018-03-27T02:15:43.754Z,3.70
2018-03-27T02:16:43.664Z,3.72
2018-03-27T02:17:43.578Z,3.70
2018-03-27T02:18:43.503Z,3.75
2018-03-27T02:19:43.414Z,3.68
2018-03-27T02:20:43.339Z,3.69
2018-03-27T02:21:43.252Z,3.70
2018-03-27T02:22:43.165Z,3.66
2018-03-27T02:23:43.090Z,3.70
2018-03-27T02:24:43.002Z,3.62
2018-03-27T02:25:42.928Z,3.65
2018-03-27T02:26:42.842Z,3.70
2018-03-27T02:27:42.754Z,3.66
2018-03-27T02:28:42.678Z,3.68
2018-03-27T02:29:42.591Z,3.62
2018-03-27T02:30:42.529Z,3.69
2018-03-27T02:31:42.429Z,3.68
2018-03-27T02:32:42.355Z,3.65
2018-03-27T02:33:42.265Z,3.68
2018-03-27T02:34:42.180Z,3.60
2018-03-27T02:35:42.092Z,3.66
2018-03-27T02:36:42.017Z,3.73
2018-03-27T02:37:41.930Z,3.72
2018-03-27T02:38:41.856Z,3.72
2018-03-27T02:39:41.770Z,3.75
2018-03-27T02:40:41.692Z,3.76
2018-03-27T02:41:41.609Z,3.73
2018-03-27T02:42:41.517Z,3.76
2018-03-27T02:43:41.441Z,3.79
2018-03-27T02:44:41.355Z,3.79
2018-03-27T02:45:41.281Z,3.75
2018-03-27T02:46:41.195Z,3.70
2018-03-27T02:47:41.107Z,3.70
2018-03-27T02:48:41.030Z,3.72
2018-03-27T02:49:40.949Z,3.70
2018-03-27T02:50:40.856Z,3.69
2018-03-27T02:51:40.781Z,3.75
2018-03-27T02:52:40.693Z,3.73
2018-03-27T02:53:40.618Z,3.75
2018-03-27T02:54:40.541Z,3.73
2018-03-27T02:55:40.443Z,3.66
2018-03-27T02:56:40.368Z,3.65
2018-03-27T02:57:40.282Z,3.66
2018-03-27T02:58:40.209Z,3.57
2018-03-27T02:59:40.119Z,3.47
2018-03-27T03:00:40.034Z,3.51
2018-03-27T03:01:39.963Z,3.35
2018-03-27T03:02:39.868Z,3.31
2018-03-27T03:03:39.794Z,3.28
2018-03-27T03:04:39.708Z,3.18
2018-03-27T03:05:39.618Z,3.21
2018-03-27T03:06:39.547Z,3.20
2018-03-27T03:07:39.459Z,3.17
2018-03-27T03:08:39.375Z,3.17
2018-03-27T03:09:39.295Z,3.20
2018-03-27T03:10:39.207Z,3.11
2018-03-27T03:11:39.136Z,3.20
2018-03-27T03:12:39.057Z,3.03
2018-03-27T03:13:38.959Z,3.11
2018-03-27T03:14:38.885Z,3.10
2018-03-27T03:15:38.794Z,3.14
2018-03-27T03:16:38.720Z,3.08
2018-03-27T03:17:38.633Z,3.06
2018-03-27T03:18:38.545Z,3.10
2018-03-27T03:19:38.472Z,3.15
2018-03-27T03:20:38.429Z,3.11
2018-03-27T03:21:38.295Z,3.06
2018-03-27T03:22:38.225Z,3.08
2018-03-27T03:23:38.134Z,3.08
2018-03-27T03:24:38.048Z,3.05
2018-03-27T03:25:37.971Z,2.99
2018-03-27T03:26:37.885Z,2.97
2018-03-27T03:27:37.809Z,2.96
2018-03-27T03:28:37.721Z,2.85
2018-03-27T03:29:37.635Z,2.89
2018-03-27T03:30:37.561Z,2.78
2018-03-27T03:31:37.473Z,2.78
2018-03-27T03:32:37.385Z,2.74
2018-03-27T03:33:37.310Z,2.75
2018-03-27T03:34:37.222Z,2.63
2018-03-27T03:35:37.135Z,2.64
2018-03-27T03:36:37.064Z,2.66
2018-03-27T03:37:36.986Z,2.56
2018-03-27T03:38:36.897Z,2.56
2018-03-27T03:39:36.811Z,2.59
2018-03-27T03:40:36.723Z,2.53
2018-03-27T03:41:36.650Z,2.56
2018-03-27T03:42:36.562Z,2.49
2018-03-27T03:43:36.485Z,2.34
2018-03-27T03:44:36.401Z,2.52
2018-03-27T03:45:36.320Z,2.41
2018-03-27T03:46:36.223Z,2.42
2018-03-27T03:47:36.148Z,2.41
2018-03-27T03:48:36.064Z,2.38
2018-03-27T03:49:35.973Z,2.34
2018-03-27T03:50:35.899Z,2.28
2018-03-27T03:51:35.816Z,2.25
2018-03-27T03:52:35.737Z,2.31
2018-03-27T03:53:35.649Z,2.31
2018-03-27T03:54:35.568Z,2.25
2018-03-27T03:55:35.475Z,2.20
2018-03-27T03:56:35.398Z,2.17
2018-03-27T03:57:35.312Z,2.20
2018-03-27T03:58:35.229Z,2.18
2018-03-27T03:59:35.151Z,2.20
2018-03-27T04:00:35.063Z,2.23
2018-03-27T04:01:34.975Z,2.20
2018-03-27T04:02:34.888Z,2.17
2018-03-27T04:03:34.814Z,2.10
2018-03-27T04:04:34.726Z,2.07
2018-03-27T04:05:34.638Z,2.14
2018-03-27T04:06:34.564Z,2.09
2018-03-27T04:07:34.477Z,2.02
2018-03-27T04:08:34.389Z,2.07
2018-03-27T04:09:34.315Z,1.87
2018-03-27T04:10:34.225Z,1.90
2018-03-27T04:11:34.138Z,1.86
2018-03-27T04:12:34.065Z,1.93
2018-03-27T04:13:33.975Z,1.80
2018-03-27T04:14:33.890Z,1.83
2018-03-27T04:15:33.803Z,1.77
2018-03-27T04:16:33.728Z,1.76
2018-03-27T04:17:33.640Z,1.79
2018-03-27T04:18:33.564Z,1.79
2018-03-27T04:19:33.477Z,1.72
2018-03-27T04:20:33.390Z,1.65
2018-03-27T04:21:33.302Z,1.54
2018-03-27T04:22:33.215Z,1.62
2018-03-27T04:23:33.145Z,1.52
2018-03-27T04:24:33.052Z,1.48
2018-03-27T04:25:32.967Z,1.54
2018-03-27T04:26:32.891Z,1.45
2018-03-27T04:27:32.806Z,1.37
2018-03-27T04:28:32.716Z,1.41
2018-03-27T04:29:32.629Z,1.36
2018-03-27T04:30:32.553Z,1.26
2018-03-27T04:31:32.467Z,1.23
2018-03-27T04:32:32.378Z,1.24
2018-03-27T04:33:32.316Z,1.24
2018-03-27T04:34:32.216Z,1.20
2018-03-27T04:35:32.134Z,1.24
2018-03-27T04:36:32.050Z,1.23
2018-03-27T04:37:31.967Z,1.20
2018-03-27T04:38:31.879Z,1.09
2018-03-27T04:39:31.792Z,1.11
2018-03-27T04:40:31.717Z,1.09
2018-03-27T04:41:31.633Z,1.08
2018-03-27T04:42:31.546Z,1.09
2018-03-27T04:43:31.455Z,1.09
2018-03-27T04:44:31.380Z,1.08
2018-03-27T04:45:31.293Z,1.05
2018-03-27T04:46:31.205Z,1.02
2018-03-27T04:47:31.123Z,0.97
2018-03-27T04:48:31.043Z,1.04
2018-03-27T04:49:30.954Z,0.93
2018-03-27T04:50:30.868Z,0.98
2018-03-27T04:51:30.780Z,0.87
2018-03-27T04:52:30.746Z,0.87
2018-03-27T04:53:30.619Z,0.83
2018-03-27T04:54:30.543Z,0.84
2018-03-27T04:55:30.447Z,0.80
2018-03-27T04:56:30.369Z,0.84
2018-03-27T04:57:30.286Z,0.86
2018-03-27T04:58:30.193Z,0.79
2018-03-27T04:59:30.106Z,0.76
2018-03-27T05:00:30.032Z,0.90
2018-03-27T05:01:29.946Z,0.96
2018-03-27T05:02:29.856Z,0.94
2018-03-27T05:03:29.770Z,0.98
2018-03-27T05:04:29.694Z,0.97
2018-03-27T05:05:29.607Z,0.98
2018-03-27T05:06:29.523Z,1.02
2018-03-27T05:07:29.432Z,0.93
2018-03-27T05:08:29.357Z,1.00
2018-03-27T05:09:29.271Z,0.97
2018-03-27T05:10:29.188Z,0.98
2018-03-27T05:11:29.095Z,0.97
2018-03-27T05:12:29.021Z,0.94
2018-03-27T05:13:28.936Z,0.94
2018-03-27T05:14:28.845Z,1.02
2018-03-27T05:15:28.757Z,0.83
2018-03-27T05:16:28.682Z,0.88
2018-03-27T05:17:28.596Z,1.00
2018-03-27T05:18:28.525Z,0.96
2018-03-27T05:19:28.422Z,0.83
2018-03-27T05:20:28.346Z,0.93
2018-03-27T05:21:28.258Z,0.80
2018-03-27T05:22:28.175Z,0.86
2018-03-27T05:23:28.084Z,0.80
2018-03-27T05:24:28.008Z,0.83
2018-03-27T05:25:27.925Z,0.78
2018-03-27T05:26:27.891Z,0.80
2018-03-27T05:27:27.747Z,0.91
2018-03-27T05:28:27.677Z,0.97
2018-03-27T05:29:27.584Z,0.94
2018-03-27T05:30:27.506Z,0.97
2018-03-27T05:31:27.412Z,0.96
2018-03-27T05:32:27.336Z,1.00
2018-03-27T05:33:27.255Z,0.98
2018-03-27T05:34:27.161Z,1.05
2018-03-27T05:35:27.072Z,1.00
2018-03-27T05:36:26.998Z,1.00
2018-03-27T05:37:26.965Z,1.12
2018-03-27T05:38:26.825Z,1.20
2018-03-27T05:39:26.738Z,1.22
2018-03-27T05:40:26.660Z,1.22
2018-03-27T05:41:26.573Z,1.30
2018-03-27T05:42:26.485Z,1.24
2018-03-27T05:43:26.398Z,1.37
2018-03-27T05:44:26.325Z,1.45
2018-03-27T05:45:26.250Z,1.40
2018-03-27T05:46:26.149Z,1.47
2018-03-27T05:47:26.062Z,1.47
2018-03-27T05:48:25.986Z,1.58
2018-03-27T05:49:25.899Z,1.55
2018-03-27T05:50:25.815Z,1.52
2018-03-27T05:51:25.736Z,1.60
2018-03-27T05:52:25.650Z,1.68
2018-03-27T05:53:25.562Z,1.69
2018-03-27T05:54:25.521Z,1.79
2018-03-27T05:55:25.400Z,1.83
2018-03-27T05:56:25.311Z,1.81
2018-03-27T05:57:25.226Z,1.87
2018-03-27T05:58:25.150Z,2.03
2018-03-27T05:59:25.062Z,2.09
2018-03-27T06:00:24.976Z,2.21
2018-03-27T06:01:24.887Z,2.23
2018-03-27T06:02:24.812Z,2.27
2018-03-27T06:03:24.732Z,2.34
2018-03-27T06:04:24.652Z,2.41
2018-03-27T06:05:24.563Z,2.49
2018-03-27T06:06:24.482Z,2.52
2018-03-27T06:07:24.388Z,2.52
2018-03-27T06:08:24.313Z,2.54
2018-03-27T06:09:24.226Z,2.67
2018-03-27T06:10:24.138Z,2.66
2018-03-27T06:11:24.063Z,2.72
2018-03-27T06:12:23.978Z,2.69
2018-03-27T06:13:23.888Z,2.71
2018-03-27T06:14:23.815Z,2.69
2018-03-27T06:15:23.733Z,2.78
2018-03-27T06:16:23.651Z,2.89
2018-03-27T06:17:23.564Z,2.92
2018-03-27T06:18:23.480Z,2.93
2018-03-27T06:19:23.390Z,3.03
2018-03-27T06:20:23.313Z,3.00
2018-03-27T06:21:23.228Z,2.99
2018-03-27T06:22:23.154Z,3.13
2018-03-27T06:23:23.064Z,3.10
2018-03-27T06:24:22.981Z,3.18
2018-03-27T06:25:22.903Z,3.24
2018-03-27T06:26:22.815Z,3.26
2018-03-27T06:27:22.739Z,3.29
2018-03-27T06:28:22.653Z,3.28
2018-03-27T06:29:22.578Z,3.35
2018-03-27T06:30:22.483Z,3.28
2018-03-27T06:31:22.403Z,3.31
2018-03-27T06:32:22.314Z,3.26
2018-03-27T06:33:22.240Z,3.32
2018-03-27T06:34:22.153Z,3.43
2018-03-27T06:35:22.065Z,3.33
2018-03-27T06:36:21.991Z,3.42
2018-03-27T06:37:21.904Z,3.54
2018-03-27T06:38:21.829Z,3.52
2018-03-27T06:39:21.741Z,3.43
2018-03-27T06:40:21.660Z,3.48
2018-03-27T06:41:21.579Z,3.43
2018-03-27T06:42:21.491Z,3.47
2018-03-27T06:43:21.416Z,3.43
2018-03-27T06:44:21.330Z,3.36
2018-03-27T06:45:21.241Z,3.42
2018-03-27T06:46:21.166Z,3.54
2018-03-27T06:47:21.080Z,3.40
2018-03-27T06:48:20.997Z,3.48
2018-03-27T06:49:20.917Z,3.57
2018-03-27T06:50:20.831Z,3.55
2018-03-27T06:51:20.754Z,3.60
2018-03-27T06:52:20.666Z,3.66
2018-03-27T06:53:20.592Z,3.68
2018-03-27T06:54:20.505Z,3.73
2018-03-27T06:55:20.417Z,3.76
2018-03-27T06:56:20.342Z,3.79
2018-03-27T06:57:20.256Z,3.70
2018-03-27T06:58:20.182Z,3.66
2018-03-27T06:59:20.093Z,3.66
2018-03-27T07:00:20.005Z,3.68
2018-03-27T07:01:19.939Z,3.76
2018-03-27T07:02:19.873Z,3.78
2018-03-27T07:03:19.789Z,3.83
2018-03-27T07:04:19.681Z,3.97
2018-03-27T07:05:19.693Z,3.98
2018-03-27T07:06:19.518Z,3.96
2018-03-27T07:07:19.431Z,4.08
2018-03-27T07:08:19.356Z,4.00
2018-03-27T07:09:19.307Z,3.94
2018-03-27T07:10:19.198Z,4.12
2018-03-27T07:11:19.111Z,3.94
2018-03-27T07:12:19.032Z,4.15
2018-03-27T07:13:18.944Z,4.14
2018-03-27T07:14:18.880Z,4.09
2018-03-27T07:15:18.803Z,4.18
2018-03-27T07:16:18.720Z,4.24
2018-03-27T07:17:18.629Z,4.34
2018-03-27T07:18:18.537Z,4.41
2018-03-27T07:19:18.470Z,4.44
2018-03-27T07:20:18.369Z,4.55
2018-03-27T07:21:18.287Z,4.52
2018-03-27T07:22:18.208Z,4.60
2018-03-27T07:23:18.120Z,4.70
2018-03-27T07:24:18.046Z,4.82
2018-03-27T07:25:17.961Z,4.91
2018-03-27T07:26:17.884Z,4.97
2018-03-27T07:27:17.797Z,5.02
2018-03-27T07:28:17.721Z,5.04
2018-03-27T07:29:17.634Z,5.15
2018-03-27T07:30:17.559Z,5.20
2018-03-27T07:31:17.471Z,5.35
2018-03-27T07:32:17.384Z,5.45
2018-03-27T07:33:17.310Z,5.40
2018-03-27T07:34:17.221Z,5.40
2018-03-27T07:35:17.159Z,5.31
2018-03-27T07:36:17.059Z,5.18
2018-03-27T07:37:16.984Z,5.20
2018-03-27T07:38:16.896Z,5.38
2018-03-27T07:39:16.821Z,5.54
2018-03-27T07:40:16.735Z,5.64
2018-03-27T07:41:16.659Z,5.68
2018-03-27T07:42:16.572Z,5.71
2018-03-27T07:43:16.500Z,5.72
2018-03-27T07:44:16.421Z,5.76
2018-03-27T07:45:16.337Z,5.83
2018-03-27T07:46:16.249Z,5.83
2018-03-27T07:47:16.172Z,5.90
2018-03-27T07:48:16.086Z,6.17
2018-03-27T07:49:16.011Z,6.31
2018-03-27T07:50:15.930Z,5.94
2018-03-27T07:51:15.848Z,5.81
2018-03-27T07:52:15.773Z,5.67
2018-03-27T07:53:15.689Z,5.49
2018-03-27T07:54:15.610Z,5.39
2018-03-27T07:55:15.524Z,5.43
2018-03-27T07:56:15.449Z,5.60
2018-03-27T07:57:15.364Z,6.61
2018-03-27T07:58:15.341Z,7.98
2018-03-27T07:59:15.199Z,8.73
2018-03-27T08:00:15.125Z,9.04
2018-03-27T08:01:15.038Z,9.58
2018-03-27T08:02:14.962Z,10.22
2018-03-27T08:03:14.875Z,10.55
2018-03-27T08:04:14.799Z,9.91
2018-03-27T08:05:14.724Z,10.05
2018-03-27T08:06:14.637Z,10.78
2018-03-27T08:07:14.563Z,10.79
2018-03-27T08:08:14.488Z,11.39
2018-03-27T08:09:14.399Z,10.47
2018-03-27T08:10:14.324Z,9.64
2018-03-27T08:11:14.273Z,9.40
2018-03-27T08:12:14.163Z,9.23
2018-03-27T08:13:14.088Z,10.04
2018-03-27T08:14:14.013Z,11.25
2018-03-27T08:15:13.929Z,12.04
2018-03-27T08:16:13.850Z,12.21
2018-03-27T08:17:13.775Z,10.89
2018-03-27T08:18:13.701Z,10.32
2018-03-27T08:19:13.639Z,11.21
2018-03-27T08:20:13.539Z,10.74
2018-03-27T08:21:13.472Z,9.71
2018-03-27T08:22:13.394Z,9.05
2018-03-27T08:23:13.314Z,9.75
2018-03-27T08:24:13.259Z,9.32
2018-03-27T08:25:13.153Z,8.58
2018-03-27T08:26:13.076Z,7.77
2018-03-27T08:27:13.004Z,7.77
2018-03-27T08:28:12.940Z,7.90
2018-03-27T08:29:12.862Z,8.71
2018-03-27T08:30:12.776Z,9.58
2018-03-27T08:31:12.690Z,10.56
2018-03-27T08:32:12.615Z,9.69
2018-03-27T08:33:12.540Z,9.56
2018-03-27T08:34:12.472Z,9.50
2018-03-27T08:35:12.379Z,9.18
2018-03-27T08:36:12.314Z,9.24
2018-03-27T08:37:12.240Z,9.35
2018-03-27T08:38:12.152Z,9.86
2018-03-27T08:39:12.078Z,9.60
2018-03-27T08:40:11.991Z,9.99
2018-03-27T08:41:11.916Z,9.99
2018-03-27T08:42:11.841Z,10.56
2018-03-27T08:43:11.772Z,11.00
2018-03-27T08:44:11.691Z,11.40
2018-03-27T08:45:11.604Z,11.82
2018-03-27T08:46:11.542Z,12.05
2018-03-27T08:47:11.453Z,11.60
2018-03-27T08:48:11.378Z,11.02
2018-03-27T08:49:11.304Z,11.21
2018-03-27T08:50:11.229Z,11.58
2018-03-27T08:51:11.154Z,11.98
2018-03-27T08:52:11.082Z,12.59
2018-03-27T08:53:10.993Z,13.00
2018-03-27T08:54:10.955Z,13.11
2018-03-27T08:55:10.843Z,13.30
2018-03-27T08:56:10.773Z,13.71
2018-03-27T08:57:10.694Z,14.27
2018-03-27T08:58:10.618Z,14.46
2018-03-27T08:59:10.543Z,13.71
2018-03-27T09:00:10.468Z,14.18
2018-03-27T09:01:10.393Z,14.33
2018-03-27T09:02:10.318Z,14.55
2018-03-27T09:03:10.244Z,14.15
2018-03-27T09:04:10.168Z,14.09
2018-03-27T09:05:10.097Z,14.27
2018-03-27T09:06:10.018Z,14.33
2018-03-27T09:07:09.945Z,14.50
2018-03-27T09:08:09.869Z,14.65
2018-03-27T09:09:09.794Z,14.47
2018-03-27T09:10:09.720Z,14.22
2018-03-27T09:11:09.644Z,13.57
2018-03-27T09:12:09.581Z,13.42
2018-03-27T09:13:09.506Z,13.89
2018-03-27T09:14:09.431Z,14.29
2018-03-27T09:15:09.387Z,13.81
2018-03-27T09:16:09.282Z,13.92
2018-03-27T09:17:09.207Z,13.82
2018-03-27T09:18:09.131Z,13.57
2018-03-27T09:19:09.057Z,13.25
2018-03-27T09:20:08.983Z,13.45
2018-03-27T09:21:08.907Z,13.39
2018-03-27T09:22:08.832Z,12.83
2018-03-27T09:23:08.757Z,13.14
2018-03-27T09:24:08.683Z,13.29
2018-03-27T09:25:08.610Z,13.25
2018-03-27T09:26:08.532Z,10.70
2018-03-27T09:27:08.462Z,8.76
2018-03-27T09:28:08.383Z,8.96
2018-03-27T09:29:08.310Z,9.32
2018-03-27T09:30:08.233Z,9.15
2018-03-27T09:31:08.158Z,9.31
2018-03-27T09:32:08.098Z,10.17
2018-03-27T09:33:08.009Z,11.03
2018-03-27T09:34:07.922Z,10.76
2018-03-27T09:35:07.847Z,10.34
2018-03-27T09:36:07.772Z,10.89
2018-03-27T09:37:07.697Z,11.35
2018-03-27T09:38:07.622Z,10.33
2018-03-27T09:39:07.553Z,10.92
2018-03-27T09:40:07.472Z,11.64
2018-03-27T09:41:07.397Z,11.58
2018-03-27T09:42:07.322Z,11.02
2018-03-27T09:43:07.248Z,9.60
2018-03-27T09:44:07.172Z,8.87
2018-03-27T09:45:07.098Z,8.59
2018-03-27T09:46:07.009Z,8.40
2018-03-27T09:47:06.934Z,8.50
2018-03-27T09:48:06.859Z,8.28
2018-03-27T09:49:06.803Z,8.01
2018-03-27T09:50:06.710Z,7.64
2018-03-27T09:51:06.635Z,7.71
2018-03-27T09:52:06.561Z,7.75
2018-03-27T09:53:06.473Z,7.68
2018-03-27T09:54:06.399Z,7.85
2018-03-27T09:55:06.333Z,8.05
2018-03-27T09:56:06.249Z,7.71
2018-03-27T09:57:06.174Z,7.92
2018-03-27T09:58:06.088Z,8.11
2018-03-27T09:59:06.015Z,8.00
2018-03-27T10:00:05.937Z,7.95
2018-03-27T10:01:05.864Z,8.12
2018-03-27T10:02:05.775Z,8.25
2018-03-27T10:03:05.700Z,8.25
2018-03-27T10:04:05.627Z,8.30
2018-03-27T10:05:05.549Z,8.52
2018-03-27T10:06:05.462Z,8.65
2018-03-27T10:07:05.400Z,8.43
2018-03-27T10:08:05.313Z,8.45
2018-03-27T10:09:05.225Z,8.52
2018-03-27T10:10:05.162Z,8.52
2018-03-27T10:11:05.076Z,8.50
2018-03-27T10:12:05.000Z,8.38
2018-03-27T10:13:04.914Z,8.30
2018-03-27T10:14:04.837Z,8.19
2018-03-27T10:15:04.762Z,8.19
2018-03-27T10:16:04.688Z,8.04
2018-03-27T10:17:04.601Z,7.97
2018-03-27T10:18:04.526Z,7.77
2018-03-27T10:19:04.452Z,7.63
2018-03-27T10:20:04.364Z,7.67
2018-03-27T10:21:04.289Z,7.74
2018-03-27T10:22:04.214Z,7.95
2018-03-27T10:23:04.127Z,8.07
2018-03-27T10:24:04.052Z,8.22
2018-03-27T10:25:03.977Z,8.38
2018-03-27T10:26:03.904Z,8.43
2018-03-27T10:27:03.818Z,8.63
2018-03-27T10:28:03.739Z,8.76
2018-03-27T10:29:03.664Z,8.73
2018-03-27T10:30:03.578Z,8.73
2018-03-27T10:31:03.504Z,8.89
2018-03-27T10:32:03.428Z,8.98
2018-03-27T10:33:03.380Z,8.96
2018-03-27T10:34:03.278Z,8.98
2018-03-27T10:35:03.190Z,8.91
2018-03-27T10:36:03.115Z,9.10
2018-03-27T10:37:03.028Z,9.18
2018-03-27T10:38:02.954Z,9.04
2018-03-27T10:39:02.878Z,8.84
2018-03-27T10:40:02.792Z,8.94
2018-03-27T10:41:02.715Z,8.45
2018-03-27T10:42:02.641Z,8.34
2018-03-27T10:43:02.566Z,8.45
2018-03-27T10:44:02.479Z,8.48
2018-03-27T10:45:02.405Z,8.41
2018-03-27T10:46:02.329Z,8.53
2018-03-27T10:47:02.262Z,8.73
2018-03-27T10:48:02.168Z,8.96
2018-03-27T10:49:02.092Z,9.18
2018-03-27T10:50:02.005Z,9.31
2018-03-27T10:51:01.932Z,9.75
2018-03-27T10:52:01.859Z,10.38
2018-03-27T10:53:01.780Z,10.78
2018-03-27T10:54:01.692Z,10.74
2018-03-27T10:55:01.633Z,10.60
2018-03-27T10:56:01.543Z,10.48
2018-03-27T10:57:01.467Z,10.44
2018-03-27T10:58:01.381Z,11.15
2018-03-27T10:59:01.306Z,11.42
2018-03-27T11:00:01.235Z,11.40
2018-03-27T11:01:01.144Z,11.46
2018-03-27T11:02:01.068Z,11.69
2018-03-27T11:03:00.997Z,11.64
2018-03-27T11:04:00.976Z,11.99
2018-03-27T11:05:00.843Z,11.90
2018-03-27T11:06:00.764Z,11.85
2018-03-27T11:07:00.682Z,11.49
2018-03-27T11:08:00.608Z,10.61
2018-03-27T11:09:00.533Z,10.55
2018-03-27T11:10:00.509Z,10.20
2018-03-27T11:11:00.370Z,9.86
2018-03-27T11:12:00.294Z,9.86
2018-03-27T11:13:00.233Z,9.40
2018-03-27T11:14:00.150Z,9.28
2018-03-27T11:15:00.070Z,9.26
2018-03-27T11:15:59.995Z,8.98
2018-03-27T11:16:59.908Z,8.87
2018-03-27T11:17:59.833Z,8.95
2018-03-27T11:18:59.758Z,9.24
2018-03-27T11:19:59.683Z,9.24
2018-03-27T11:20:59.608Z,9.40
2018-03-27T11:21:59.521Z,9.58
2018-03-27T11:22:59.445Z,9.71
2018-03-27T11:23:59.371Z,9.74
2018-03-27T11:24:59.295Z,9.75
2018-03-27T11:25:59.220Z,9.78
2018-03-27T11:26:59.134Z,9.89
2018-03-27T11:27:59.061Z,10.01
2018-03-27T11:28:58.985Z,10.09
2018-03-27T11:29:58.909Z,10.12
2018-03-27T11:30:58.836Z,10.15
2018-03-27T11:31:58.749Z,10.15
2018-03-27T11:32:58.672Z,10.25
2018-03-27T11:33:58.597Z,10.15
2018-03-27T11:34:58.574Z,9.94
2018-03-27T11:35:58.450Z,9.93
2018-03-27T11:36:58.360Z,9.69
2018-03-27T11:37:58.324Z,9.58
2018-03-27T11:38:58.211Z,9.75
2018-03-27T11:39:58.135Z,9.86
2018-03-27T11:40:58.049Z,9.87
2018-03-27T11:41:57.973Z,9.93
2018-03-27T11:42:57.911Z,9.65
2018-03-27T11:43:57.822Z,9.54
2018-03-27T11:44:57.788Z,9.40
2018-03-27T11:45:57.662Z,9.40
2018-03-27T11:46:57.587Z,9.43
2018-03-27T11:47:57.512Z,9.64
2018-03-27T11:48:57.440Z,9.61
2018-03-27T11:49:57.349Z,9.40
2018-03-27T11:50:57.315Z,9.50
2018-03-27T11:51:57.199Z,9.57
2018-03-27T11:52:57.124Z,9.66
2018-03-27T11:53:57.040Z,9.57
2018-03-27T11:54:56.962Z,9.61
2018-03-27T11:55:56.888Z,9.46
2018-03-27T11:56:56.813Z,9.04
2018-03-27T11:57:56.724Z,9.10
2018-03-27T11:58:56.663Z,8.95
2018-03-27T11:59:56.575Z,8.96
2018-03-27T12:00:56.514Z,8.83
2018-03-27T12:01:56.414Z,8.70
2018-03-27T12:02:56.338Z,8.73
2018-03-27T12:03:56.264Z,8.74
2018-03-27T12:04:56.176Z,8.52
2018-03-27T12:05:56.101Z,8.20
2018-03-27T12:06:56.043Z,8.34
2018-03-27T12:07:55.951Z,8.34
2018-03-27T12:08:55.865Z,8.22
2018-03-27T12:09:55.789Z,8.23
2018-03-27T12:10:55.715Z,8.37
2018-03-27T12:11:55.639Z,8.33
2018-03-27T12:12:55.551Z,8.34
2018-03-27T12:13:55.476Z,8.52
2018-03-27T12:14:55.402Z,8.55
2018-03-27T12:15:55.319Z,8.23
2018-03-27T12:16:55.240Z,8.12
2018-03-27T12:17:55.155Z,7.98
2018-03-27T12:18:55.076Z,7.90
2018-03-27T12:19:55.002Z,7.83
2018-03-27T12:20:54.916Z,7.69
2018-03-27T12:21:54.840Z,7.58
2018-03-27T12:22:54.755Z,7.67
2018-03-27T12:23:54.679Z,7.79
2018-03-27T12:24:54.654Z,7.82
2018-03-27T12:25:54.517Z,7.89
2018-03-27T12:26:54.441Z,7.97
2018-03-27T12:27:54.367Z,8.04
2018-03-27T12:28:54.279Z,7.90
2018-03-27T12:29:54.204Z,7.87
2018-03-27T12:30:54.141Z,8.02
2018-03-27T12:31:54.044Z,8.05
2018-03-27T12:32:53.967Z,8.16
2018-03-27T12:33:53.891Z,8.22
2018-03-27T12:34:53.803Z,8.19
2018-03-27T12:35:53.729Z,8.23
2018-03-27T12:36:53.703Z,8.26
2018-03-27T12:37:53.569Z,8.18
2018-03-27T12:38:53.492Z,8.23
2018-03-27T12:39:53.414Z,8.12
2018-03-27T12:40:53.331Z,7.97
2018-03-27T12:41:53.254Z,7.69
2018-03-27T12:42:53.169Z,7.63
2018-03-27T12:43:53.093Z,7.86
2018-03-27T12:44:53.009Z,7.98
2018-03-27T12:45:52.931Z,8.02
2018-03-27T12:46:52.855Z,7.98
2018-03-27T12:47:52.769Z,8.16
2018-03-27T12:48:52.694Z,8.20
2018-03-27T12:49:52.618Z,8.20
2018-03-27T12:50:52.530Z,8.18
2018-03-27T12:51:52.455Z,8.45
2018-03-27T12:52:52.369Z,8.45
2018-03-27T12:53:52.294Z,8.45
2018-03-27T12:54:52.219Z,8.29
2018-03-27T12:55:52.131Z,8.22
2018-03-27T12:56:52.062Z,8.18
2018-03-27T12:57:51.982Z,8.19
2018-03-27T12:58:51.895Z,8.33
2018-03-27T12:59:51.820Z,8.43
2018-03-27T13:00:51.733Z,8.48
2018-03-27T13:01:51.657Z,8.68
2018-03-27T13:02:51.587Z,8.76
2018-03-27T13:03:51.496Z,8.77
2018-03-27T13:04:51.421Z,8.83
2018-03-27T13:05:51.346Z,8.84
2018-03-27T13:06:51.257Z,8.61
2018-03-27T13:07:51.182Z,8.36
2018-03-27T13:08:51.109Z,8.48
2018-03-27T13:09:51.021Z,8.52
2018-03-27T13:10:50.947Z,8.50
2018-03-27T13:11:50.928Z,8.68
2018-03-27T13:12:50.783Z,8.71
2018-03-27T13:13:50.722Z,8.91
2018-03-27T13:14:50.633Z,8.65